Language: 

Nearby METAR Reports

METAR Reports

Hourly observations from airfields within 50 miles of this weather station

 

EGHH - Bournemouth Airp, United Kingdom
Distance from station: S 10mi, 17km
Updated: Tue, 17-Jul-2018 11:20pm BST
Clear
Clear
 Wind from WSW
Wind: WSW 7 mph , 11 km/h
Temperature: 16°C
Dew Point: 14°C
Humidity: 88%
Barometer: 1018 hPa
Summary: Clear
Visibility: greater than 7 miles , 10 km
2018/07/17 22:20 EGHH 172220Z 24006KT CAVOK 16/14 Q1018
EGDM - Boscombe Down, United Kingdom
Distance from station: N 16mi, 26km
Updated: Tue, 17-Jul-2018 10:50pm BST
Overcast
Overcast
 Wind from SSW
Wind: SSW 5 mph , 7 km/h
Temperature: 15°C
Dew Point: 12°C
Humidity: 82%
Barometer: 1018 hPa
Clouds: Overcast
Visibility: 6 miles , 10 km
Cloud details: Overcast 2134 m
2018/07/17 21:50 EGDM 172150Z AUTO 20004KT 9999 OVC070/// 15/12 Q1018
 
EGVP - Middle Wallop, United Kingdom
Distance from station: NE 17mi, 27km
Updated: Tue, 17-Jul-2018 10:50pm BST
Clear
Clear
 Wind from SW
Wind: SW 3 mph , 6 km/h
Temperature: 16°C
Dew Point: 12°C
Humidity: 77%
Barometer: 1018 hPa
Summary: Clear
Visibility: greater than 7 miles , 10 km
2018/07/17 21:50 EGVP 172150Z 22003KT CAVOK 16/12 Q1018 BLU NOSIG
EGHI - Southampton Wx C, United Kingdom
Distance from station: E 19mi, 31km
Updated: Tue, 17-Jul-2018 10:50pm BST
Clear
Clear
 Wind from WSW
Wind: WSW 6 mph , 9 km/h
Temperature: 15°C
Dew Point: 11°C
Humidity: 77%
Barometer: 1018 hPa
Summary: Clear
Visibility: greater than 7 miles , 10 km
2018/07/17 21:50 EGHI 172150Z 24005KT CAVOK 15/11 Q1018
 
EGDY - Yeovilton (navy), United Kingdom
Distance from station: W 36mi, 58km
Updated: Tue, 17-Jul-2018 10:50pm BST
Clear
Clear
 Wind from S
Wind: S 2 mph , 4 km/h
Temperature: 17°C
Dew Point: 14°C
Humidity: 83%
Barometer: 1017 hPa
Summary: Clear
Visibility: greater than 7 miles , 10 km
2018/07/17 21:50 EGDY 172150Z 19002KT CAVOK 17/14 Q1017 BLU NOSIG
EGVO - Odiham Raf, United Kingdom
Distance from station: ENE 42mi, 68km
Updated: Tue, 17-Jul-2018 10:50pm BST
Clear
Clear
 Wind from SW
Wind: SW 5 mph , 7 km/h
Temperature: 16°C
Dew Point: 12°C
Humidity: 77%
Barometer: 1018 hPa
Summary: Clear
Visibility: greater than 7 miles , 10 km
2018/07/17 21:50 EGVO 172150Z 22004KT CAVOK 16/12 Q1018 BLU NOSIG

Metar display script from Saratoga-Weather.org

top of page button